createdAt,value
2022-10-01T00:01:17.275Z,12.43
2022-10-01T00:03:44.376Z,12.34
2022-10-01T00:06:16.540Z,12.16
2022-10-01T00:08:46.898Z,12.07
2022-10-01T00:11:22.063Z,11.91
2022-10-01T00:13:49.653Z,11.73
2022-10-01T00:16:19.347Z,11.61
2022-10-01T00:18:47.234Z,11.51
2022-10-01T00:21:19.049Z,11.44
2022-10-01T00:23:46.350Z,11.35
2022-10-01T00:26:20.914Z,11.32
2022-10-01T00:28:52.518Z,11.26
2022-10-01T00:31:19.065Z,11.22
2022-10-01T00:33:45.549Z,11.16
2022-10-01T00:36:12.200Z,11.14
2022-10-01T00:38:40.265Z,11.13
2022-10-01T00:41:07.652Z,11.08
2022-10-01T00:43:37.743Z,11.15
2022-10-01T00:46:13.421Z,11.21
2022-10-01T00:49:07.084Z,11.12
2022-10-01T00:51:39.873Z,11.12
2022-10-01T00:54:15.258Z,10.90
2022-10-01T00:56:43.386Z,11.02
2022-10-01T00:59:12.091Z,10.94
2022-10-01T01:01:39.312Z,10.93
2022-10-01T01:04:16.306Z,10.85
2022-10-01T01:06:57.597Z,10.89
2022-10-01T01:09:55.644Z,10.87
2022-10-01T01:12:51.266Z,10.80
2022-10-01T01:15:34.527Z,10.86
2022-10-01T01:18:24.948Z,10.85
2022-10-01T01:21:00.502Z,10.88
2022-10-01T01:23:33.539Z,10.86
2022-10-01T01:26:24.656Z,10.87
2022-10-01T01:28:58.339Z,10.81
2022-10-01T01:31:32.921Z,10.70
2022-10-01T01:34:01.154Z,10.73
2022-10-01T01:36:37.007Z,10.72
2022-10-01T01:39:08.740Z,10.70
2022-10-01T01:41:40.798Z,10.64
2022-10-01T01:44:12.177Z,10.66
2022-10-01T01:46:44.147Z,10.68
2022-10-01T01:49:11.144Z,10.65
2022-10-01T01:51:51.116Z,10.66
2022-10-01T01:54:19.580Z,10.60
2022-10-01T01:56:46.552Z,10.61
2022-10-01T01:59:13.688Z,10.58
2022-10-01T02:01:42.455Z,10.57
2022-10-01T02:04:32.115Z,10.66
2022-10-01T02:07:20.373Z,10.59
2022-10-01T02:10:19.421Z,10.60
2022-10-01T02:13:01.482Z,10.62
2022-10-01T02:15:36.044Z,10.55
2022-10-01T02:18:22.113Z,10.59
2022-10-01T02:20:54.522Z,10.61
2022-10-01T02:23:37.932Z,10.66
2022-10-01T02:26:13.151Z,10.68
2022-10-01T02:28:42.380Z,10.70
2022-10-01T02:31:11.367Z,10.75
2022-10-01T02:33:39.895Z,10.80
2022-10-01T02:36:10.285Z,10.64
2022-10-01T02:38:40.984Z,10.68
2022-10-01T02:41:11.578Z,10.65
2022-10-01T02:43:47.076Z,10.70
2022-10-01T02:46:28.354Z,10.75
2022-10-01T02:48:56.822Z,10.75
2022-10-01T02:51:45.456Z,10.64
2022-10-01T02:54:51.015Z,10.59
2022-10-01T02:57:26.940Z,10.57
2022-10-01T03:00:03.154Z,10.55
2022-10-01T03:02:31.508Z,10.57
2022-10-01T03:04:59.110Z,10.59
2022-10-01T03:07:27.589Z,10.67
2022-10-01T03:09:54.388Z,10.62
2022-10-01T03:12:22.393Z,10.61
2022-10-01T03:14:49.611Z,10.70
2022-10-01T03:17:16.846Z,10.67
2022-10-01T03:19:43.677Z,10.73
2022-10-01T03:22:13.776Z,10.59
2022-10-01T03:24:40.381Z,10.60
2022-10-01T03:27:06.871Z,10.60
2022-10-01T03:29:33.385Z,10.65
2022-10-01T03:31:59.967Z,10.70
2022-10-01T03:34:26.622Z,10.70
2022-10-01T03:36:53.195Z,10.60
2022-10-01T03:39:19.921Z,10.52
2022-10-01T03:41:46.396Z,10.52
2022-10-01T03:44:12.999Z,10.61
2022-10-01T03:46:39.473Z,10.63
2022-10-01T03:49:06.225Z,10.63
2022-10-01T03:51:33.566Z,10.72
2022-10-01T03:54:00.244Z,10.69
2022-10-01T03:56:26.790Z,10.62
2022-10-01T03:58:53.288Z,10.69
2022-10-01T04:01:19.782Z,10.68
2022-10-01T04:03:46.533Z,10.70
2022-10-01T04:06:13.177Z,10.66
2022-10-01T04:08:39.741Z,10.68
2022-10-01T04:11:07.289Z,10.73
2022-10-01T04:13:34.585Z,10.69
2022-10-01T04:16:02.492Z,10.65
2022-10-01T04:18:29.346Z,10.58
2022-10-01T04:20:55.866Z,10.58
2022-10-01T04:23:22.632Z,10.71
2022-10-01T04:25:49.403Z,10.79
2022-10-01T04:28:16.635Z,10.90
2022-10-01T04:30:44.923Z,10.89
2022-10-01T04:33:16.651Z,10.90
2022-10-01T04:35:44.254Z,10.93
2022-10-01T04:38:16.545Z,11.06
2022-10-01T04:40:43.124Z,11.09
2022-10-01T04:43:11.228Z,11.08
2022-10-01T04:45:38.222Z,11.03
2022-10-01T04:48:05.375Z,11.12
2022-10-01T04:50:32.146Z,11.10
2022-10-01T04:52:58.682Z,11.15
2022-10-01T04:55:25.709Z,11.20
2022-10-01T04:57:52.254Z,11.15
2022-10-01T05:00:21.828Z,11.10
2022-10-01T05:02:49.776Z,11.12
2022-10-01T05:05:17.922Z,11.17
2022-10-01T05:07:45.389Z,11.11
2022-10-01T05:10:14.424Z,11.02
2022-10-01T05:12:41.528Z,11.08
2022-10-01T05:15:08.730Z,11.28
2022-10-01T05:17:35.921Z,11.24
2022-10-01T05:20:04.720Z,11.29
2022-10-01T05:22:32.004Z,11.29
2022-10-01T05:25:00.150Z,11.33
2022-10-01T05:27:27.571Z,11.31
2022-10-01T05:29:54.070Z,11.29
2022-10-01T05:32:20.634Z,11.34
2022-10-01T05:34:51.191Z,11.28
2022-10-01T05:37:19.970Z,11.40
2022-10-01T05:39:46.563Z,11.40
2022-10-01T05:42:13.046Z,11.46
2022-10-01T05:44:40.850Z,11.54
2022-10-01T05:47:07.681Z,11.45
2022-10-01T05:49:34.411Z,11.47
2022-10-01T05:52:01.216Z,11.46
2022-10-01T05:54:29.619Z,11.51
2022-10-01T05:56:59.128Z,11.50
2022-10-01T05:59:29.675Z,11.50
2022-10-01T06:01:58.174Z,11.49
2022-10-01T06:04:24.891Z,11.61
2022-10-01T06:06:53.523Z,11.54
2022-10-01T06:09:19.977Z,11.55
2022-10-01T06:11:48.950Z,11.61
2022-10-01T06:14:16.416Z,11.67
2022-10-01T06:16:43.054Z,11.64
2022-10-01T06:19:09.703Z,11.71
2022-10-01T06:21:36.549Z,11.75
2022-10-01T06:24:03.681Z,11.87
2022-10-01T06:26:30.245Z,11.89
2022-10-01T06:28:56.869Z,11.95
2022-10-01T06:31:23.419Z,11.94
2022-10-01T06:33:49.958Z,11.97
2022-10-01T06:36:16.588Z,12.02
2022-10-01T06:38:43.282Z,12.05
2022-10-01T06:41:09.899Z,12.08
2022-10-01T06:43:36.490Z,12.15
2022-10-01T06:46:05.046Z,12.16
2022-10-01T06:48:32.528Z,12.16
2022-10-01T06:50:59.510Z,12.18
2022-10-01T06:53:27.656Z,12.22
2022-10-01T06:55:54.547Z,12.24
2022-10-01T06:58:23.483Z,12.31
2022-10-01T07:00:50.491Z,12.34
2022-10-01T07:03:21.767Z,12.37
2022-10-01T07:05:49.393Z,12.40
2022-10-01T07:08:16.272Z,12.39
2022-10-01T07:10:44.055Z,12.44
2022-10-01T07:13:17.611Z,12.50
2022-10-01T07:15:45.514Z,12.49
2022-10-01T07:18:13.152Z,12.54
2022-10-01T07:20:40.614Z,12.58
2022-10-01T07:23:10.471Z,12.59
2022-10-01T07:25:38.810Z,12.60
2022-10-01T07:28:07.896Z,12.63
2022-10-01T07:30:34.826Z,12.63
2022-10-01T07:33:01.297Z,12.51
2022-10-01T07:35:29.573Z,12.44
2022-10-01T07:37:56.021Z,12.38
2022-10-01T07:40:22.776Z,12.30
2022-10-01T07:42:54.698Z,12.27
2022-10-01T07:45:22.797Z,12.28
2022-10-01T07:47:56.517Z,12.25
2022-10-01T07:50:23.503Z,12.23
2022-10-01T07:52:52.434Z,12.24
2022-10-01T07:55:19.783Z,12.29
2022-10-01T07:57:54.042Z,12.41
2022-10-01T08:00:21.594Z,12.51
2022-10-01T08:02:53.529Z,12.56
2022-10-01T08:05:22.763Z,12.62
2022-10-01T08:07:50.036Z,12.63
2022-10-01T08:10:18.791Z,12.61
2022-10-01T08:12:45.702Z,12.67
2022-10-01T08:15:14.924Z,12.63
2022-10-01T08:17:41.814Z,12.64
2022-10-01T08:20:10.586Z,12.67
2022-10-01T08:22:41.641Z,12.74
2022-10-01T08:25:09.659Z,12.87
2022-10-01T08:27:36.681Z,12.98
2022-10-01T08:30:03.940Z,13.02
2022-10-01T08:32:31.122Z,13.07
2022-10-01T08:34:59.998Z,13.15
2022-10-01T08:37:28.492Z,13.19
2022-10-01T08:39:56.356Z,13.25
2022-10-01T08:42:39.486Z,13.32
2022-10-01T08:45:13.194Z,13.37
2022-10-01T08:47:44.654Z,13.41
2022-10-01T08:50:31.930Z,13.42
2022-10-01T08:53:02.843Z,13.46
2022-10-01T08:55:36.287Z,13.52
2022-10-01T08:58:10.293Z,13.62
2022-10-01T09:00:41.947Z,13.64
2022-10-01T09:03:13.021Z,13.72
2022-10-01T09:05:55.407Z,13.77
2022-10-01T09:08:46.172Z,13.77
2022-10-01T09:11:16.880Z,13.79
2022-10-01T09:13:50.535Z,13.64
2022-10-01T09:16:32.218Z,13.56
2022-10-01T09:19:08.099Z,13.52
2022-10-01T09:21:52.815Z,13.44
2022-10-01T09:24:44.425Z,13.34
2022-10-01T09:27:17.408Z,13.30
2022-10-01T09:30:07.308Z,13.22
2022-10-01T09:32:40.401Z,13.18
2022-10-01T09:35:25.624Z,13.20
2022-10-01T09:37:59.982Z,13.22
2022-10-01T09:40:35.593Z,13.19
2022-10-01T09:43:08.119Z,13.16
2022-10-01T09:45:35.473Z,13.18
2022-10-01T09:48:13.988Z,13.17
2022-10-01T09:50:55.323Z,13.20
2022-10-01T09:53:29.483Z,13.21
2022-10-01T09:56:00.283Z,13.20
2022-10-01T09:58:28.971Z,13.19
2022-10-01T10:00:56.494Z,13.24
2022-10-01T10:03:31.412Z,13.23
2022-10-01T10:05:59.878Z,13.26
2022-10-01T10:08:31.088Z,13.33
2022-10-01T10:11:03.047Z,13.42
2022-10-01T10:13:50.850Z,13.39
2022-10-01T10:16:26.385Z,13.56
2022-10-01T10:19:25.787Z,13.61
2022-10-01T10:22:00.602Z,13.75
2022-10-01T10:24:32.526Z,13.91
2022-10-01T10:27:01.027Z,14.10
2022-10-01T10:29:33.307Z,14.27
2022-10-01T10:32:04.788Z,14.37
2022-10-01T10:34:41.213Z,14.51
2022-10-01T10:37:20.756Z,14.66
2022-10-01T10:39:51.136Z,14.78
2022-10-01T10:42:23.003Z,14.90
2022-10-01T10:44:52.824Z,14.99
2022-10-01T10:47:21.491Z,15.09
2022-10-01T10:50:02.430Z,15.23
2022-10-01T10:52:36.097Z,15.34
2022-10-01T10:55:23.206Z,15.45
2022-10-01T10:57:51.545Z,15.58
2022-10-01T11:00:24.057Z,15.69
2022-10-01T11:03:00.006Z,15.83
2022-10-01T11:05:28.952Z,15.84
2022-10-01T11:08:00.723Z,15.72
2022-10-01T11:10:32.767Z,15.66
2022-10-01T11:13:21.569Z,15.66
2022-10-01T11:16:06.263Z,15.72
2022-10-01T11:18:48.086Z,15.69
2022-10-01T11:21:43.335Z,15.66
2022-10-01T11:24:46.031Z,15.52
2022-10-01T11:27:27.226Z,15.57
2022-10-01T11:30:10.097Z,15.81
2022-10-01T11:32:48.995Z,16.01
2022-10-01T11:35:27.506Z,16.10
2022-10-01T11:38:27.304Z,16.14
2022-10-01T11:41:26.001Z,16.12
2022-10-01T11:43:55.370Z,16.19
2022-10-01T11:46:43.330Z,16.32
2022-10-01T11:49:29.156Z,16.31
2022-10-01T11:52:23.561Z,16.34
2022-10-01T11:55:24.340Z,16.33
2022-10-01T11:58:16.399Z,16.37
2022-10-01T12:00:49.357Z,16.45
2022-10-01T12:03:23.457Z,16.52
2022-10-01T12:05:52.064Z,16.57
2022-10-01T12:08:26.080Z,16.59
2022-10-01T12:11:05.564Z,16.68
2022-10-01T12:13:37.707Z,16.77
2022-10-01T12:16:23.658Z,16.80
2022-10-01T12:18:55.769Z,16.91
2022-10-01T12:21:27.301Z,17.01
2022-10-01T12:24:13.724Z,17.14
2022-10-01T12:26:46.190Z,17.31
2022-10-01T12:29:40.073Z,17.31
2022-10-01T12:32:26.783Z,17.43
2022-10-01T12:35:18.099Z,17.55
2022-10-01T12:38:05.033Z,17.62
2022-10-01T12:40:35.554Z,17.72
2022-10-01T12:43:23.747Z,17.80
2022-10-01T12:46:05.573Z,17.82
2022-10-01T12:48:59.600Z,17.77
2022-10-01T12:51:46.188Z,17.83
2022-10-01T12:55:00.987Z,17.80
2022-10-01T12:57:58.901Z,17.83
2022-10-01T13:00:27.333Z,17.93
2022-10-01T13:03:25.865Z,17.99
2022-10-01T13:06:18.167Z,17.97
2022-10-01T13:08:57.649Z,18.11
2022-10-01T13:11:42.041Z,17.99
2022-10-01T13:14:15.957Z,17.89
2022-10-01T13:16:58.146Z,17.88
2022-10-01T13:19:57.548Z,17.80
2022-10-01T13:22:50.779Z,17.76
2022-10-01T13:25:38.142Z,17.70
2022-10-01T13:28:17.594Z,17.77
2022-10-01T13:30:53.510Z,17.85
2022-10-01T13:33:23.791Z,17.86
2022-10-01T13:36:05.211Z,17.92
2022-10-01T13:38:37.929Z,17.91
2022-10-01T13:41:07.505Z,17.96
2022-10-01T13:43:35.422Z,17.99
2022-10-01T13:46:09.098Z,18.02
2022-10-01T13:48:43.878Z,18.13
2022-10-01T13:51:13.228Z,18.17
2022-10-01T13:53:44.895Z,18.14
2022-10-01T13:56:14.531Z,18.17
2022-10-01T13:58:47.189Z,17.94
2022-10-01T14:01:21.399Z,17.74
2022-10-01T14:04:07.050Z,17.41
2022-10-01T14:06:36.858Z,17.34
2022-10-01T14:09:20.751Z,17.24
2022-10-01T14:12:20.220Z,17.05
2022-10-01T14:15:13.445Z,16.99
2022-10-01T14:17:41.899Z,16.90
2022-10-01T14:20:09.128Z,16.85
2022-10-01T14:22:49.948Z,16.73
2022-10-01T14:25:29.142Z,16.70
2022-10-01T14:28:26.516Z,16.70
2022-10-01T14:31:05.085Z,16.76
2022-10-01T14:33:52.716Z,16.93
2022-10-01T14:36:28.413Z,16.99
2022-10-01T14:39:13.140Z,16.90
2022-10-01T14:41:39.664Z,16.79
2022-10-01T14:44:21.698Z,16.69
2022-10-01T14:46:50.238Z,16.70
2022-10-01T14:49:23.177Z,16.74
2022-10-01T14:51:56.507Z,16.68
2022-10-01T14:54:23.763Z,16.65
2022-10-01T14:56:51.338Z,16.62
2022-10-01T14:59:26.200Z,16.60
2022-10-01T15:01:57.982Z,16.72
2022-10-01T15:04:24.665Z,16.80
2022-10-01T15:06:51.597Z,16.76
2022-10-01T15:09:20.452Z,16.79
2022-10-01T15:11:50.053Z,16.79
2022-10-01T15:14:23.919Z,16.79
2022-10-01T15:16:50.985Z,16.80
2022-10-01T15:19:21.006Z,16.94
2022-10-01T15:21:54.262Z,16.96
2022-10-01T15:24:26.043Z,17.03
2022-10-01T15:26:54.440Z,17.10
2022-10-01T15:29:20.977Z,17.15
2022-10-01T15:31:50.375Z,17.14
2022-10-01T15:34:19.671Z,17.09
2022-10-01T15:36:48.455Z,16.98
2022-10-01T15:39:29.937Z,16.82
2022-10-01T15:41:57.566Z,16.61
2022-10-01T15:44:38.433Z,16.71
2022-10-01T15:47:20.553Z,16.81
2022-10-01T15:50:09.482Z,16.91
2022-10-01T15:52:51.783Z,16.87
2022-10-01T15:55:30.848Z,16.88
2022-10-01T15:58:19.948Z,16.92
2022-10-01T16:01:06.614Z,16.89
2022-10-01T16:03:40.607Z,16.90
2022-10-01T16:06:39.236Z,16.86
2022-10-01T16:09:13.958Z,16.88
2022-10-01T16:11:59.944Z,16.84
2022-10-01T16:14:43.745Z,16.80
2022-10-01T16:17:16.365Z,16.87
2022-10-01T16:19:52.125Z,16.91
2022-10-01T16:22:29.574Z,16.93
2022-10-01T16:24:58.677Z,16.83
2022-10-01T16:27:45.072Z,16.77
2022-10-01T16:30:18.780Z,16.79
2022-10-01T16:32:45.403Z,16.79
2022-10-01T16:35:19.989Z,16.70
2022-10-01T16:37:49.577Z,16.65
2022-10-01T16:40:21.566Z,16.65
2022-10-01T16:45:40.319Z,16.59
2022-10-01T16:48:20.009Z,16.62
2022-10-01T16:50:47.252Z,16.52
2022-10-01T16:53:18.183Z,16.54
2022-10-01T16:55:46.148Z,16.56
2022-10-01T16:58:13.501Z,16.63
2022-10-01T17:00:40.062Z,16.49
2022-10-01T17:03:12.126Z,16.41
2022-10-01T17:05:39.185Z,16.33
2022-10-01T17:08:11.277Z,16.43
2022-10-01T17:10:42.936Z,16.28
2022-10-01T17:13:10.175Z,16.20
2022-10-01T17:15:36.657Z,16.21
2022-10-01T17:18:03.294Z,16.15
2022-10-01T17:20:30.870Z,16.23
2022-10-01T17:22:58.658Z,16.09
2022-10-01T17:25:32.190Z,16.09
2022-10-01T17:27:59.855Z,16.05
2022-10-01T17:30:29.067Z,15.97
2022-10-01T17:32:56.977Z,15.98
2022-10-01T17:35:23.773Z,15.92
2022-10-01T17:37:50.248Z,15.94
2022-10-01T17:40:16.858Z,15.82
2022-10-01T17:42:43.510Z,15.78
2022-10-01T17:45:12.678Z,15.78
2022-10-01T17:47:44.346Z,15.77
2022-10-01T17:50:11.057Z,15.86
2022-10-01T17:52:37.809Z,15.80
2022-10-01T17:55:05.324Z,15.68
2022-10-01T17:57:32.249Z,15.73
2022-10-01T17:59:58.786Z,15.72
2022-10-01T18:02:41.918Z,15.62
2022-10-01T18:05:12.151Z,15.52
2022-10-01T18:07:38.991Z,15.52
2022-10-01T18:10:07.814Z,15.46
2022-10-01T18:12:34.400Z,15.49
2022-10-01T18:15:01.711Z,15.38
2022-10-01T18:17:29.203Z,15.42
2022-10-01T18:19:57.030Z,15.35
2022-10-01T18:22:23.848Z,15.24
2022-10-01T18:24:50.451Z,15.24
2022-10-01T18:27:17.009Z,15.14
2022-10-01T18:29:43.561Z,15.18
2022-10-01T18:32:22.850Z,15.23
2022-10-01T18:35:01.085Z,15.31
2022-10-01T18:37:41.025Z,15.42
2022-10-01T18:40:11.250Z,15.48
2022-10-01T18:42:59.759Z,15.53
2022-10-01T18:45:45.220Z,15.52
2022-10-01T18:48:37.921Z,15.34
2022-10-01T18:51:42.555Z,15.34
2022-10-01T18:54:33.638Z,15.22
2022-10-01T18:57:26.068Z,15.13
2022-10-01T19:00:18.539Z,14.98
2022-10-01T19:03:04.264Z,14.88
2022-10-01T19:05:36.633Z,14.78
2022-10-01T19:08:44.236Z,14.76
2022-10-01T19:11:19.685Z,14.73
2022-10-01T19:14:28.838Z,14.82
2022-10-01T19:17:34.512Z,14.89
2022-10-01T19:20:15.631Z,14.95
2022-10-01T19:23:00.876Z,14.74
2022-10-01T19:25:33.467Z,14.59
2022-10-01T19:28:12.214Z,14.59
2022-10-01T19:30:56.796Z,14.45
2022-10-01T19:33:24.401Z,14.51
2022-10-01T19:35:56.712Z,14.44
2022-10-01T19:38:38.045Z,14.60
2022-10-01T19:41:21.916Z,14.54
2022-10-01T19:44:02.457Z,14.43
2022-10-01T19:46:36.971Z,14.49
2022-10-01T19:49:09.695Z,14.40
2022-10-01T19:51:45.003Z,14.41
2022-10-01T19:54:16.840Z,14.49
2022-10-01T19:56:46.945Z,14.58
2022-10-01T19:59:19.656Z,14.53
2022-10-01T20:01:54.053Z,14.60
2022-10-01T20:04:30.268Z,14.62
2022-10-01T20:07:17.249Z,14.51
2022-10-01T20:09:55.053Z,14.47
2022-10-01T20:12:45.715Z,14.39
2022-10-01T20:15:43.144Z,14.39
2022-10-01T20:18:41.970Z,14.39
2022-10-01T20:21:46.182Z,14.21
2022-10-01T20:24:28.868Z,14.17
2022-10-01T20:27:03.936Z,14.19
2022-10-01T20:30:00.908Z,14.34
2022-10-01T20:32:32.307Z,14.48
2022-10-01T20:35:23.677Z,14.47
2022-10-01T20:38:00.323Z,14.33
2022-10-01T20:40:35.765Z,14.34
2022-10-01T20:43:17.942Z,14.42
2022-10-01T20:45:49.948Z,14.50
2022-10-01T20:48:24.116Z,14.51
2022-10-01T20:50:53.933Z,14.55
2022-10-01T20:53:53.034Z,14.49
2022-10-01T20:56:41.493Z,14.49
2022-10-01T20:59:19.177Z,14.48
2022-10-01T21:01:55.050Z,14.48
2022-10-01T21:04:28.916Z,14.48
2022-10-01T21:07:01.904Z,14.41
2022-10-01T21:09:40.760Z,14.42
2022-10-01T21:12:15.160Z,14.38
2022-10-01T21:14:53.721Z,14.29
2022-10-01T21:18:05.315Z,14.22
2022-10-01T21:20:57.535Z,14.21
2022-10-01T21:23:39.546Z,14.21
2022-10-01T21:26:24.599Z,14.26
2022-10-01T21:29:10.004Z,14.25
2022-10-01T21:31:45.817Z,14.16
2022-10-01T21:34:27.747Z,13.96
2022-10-01T21:37:13.350Z,13.90
2022-10-01T21:39:48.160Z,13.91
2022-10-01T21:42:18.781Z,13.98
2022-10-01T21:45:12.406Z,14.00
2022-10-01T21:48:37.790Z,13.89
2022-10-01T21:51:36.669Z,13.85
2022-10-01T21:54:27.439Z,13.88
2022-10-01T21:57:10.288Z,13.67
2022-10-01T22:00:06.350Z,13.75
2022-10-01T22:02:54.560Z,13.63
2022-10-01T22:05:32.461Z,13.62
2022-10-01T22:08:20.528Z,13.59
2022-10-01T22:10:52.094Z,13.59
2022-10-01T22:13:35.699Z,13.49
2022-10-01T22:16:14.321Z,13.51
2022-10-01T22:18:45.961Z,13.48
2022-10-01T22:21:18.167Z,13.50
2022-10-01T22:23:57.831Z,13.35
2022-10-01T22:26:29.991Z,13.33
2022-10-01T22:28:57.088Z,13.44
2022-10-01T22:31:30.362Z,13.42
2022-10-01T22:34:06.079Z,13.32
2022-10-01T22:36:58.552Z,13.27
2022-10-01T22:39:29.040Z,13.26
2022-10-01T22:42:08.581Z,13.18
2022-10-01T22:44:35.156Z,13.19
2022-10-01T22:47:20.272Z,13.26
2022-10-01T22:49:52.850Z,13.24
2022-10-01T22:52:53.768Z,13.15
2022-10-01T22:55:38.780Z,13.22
2022-10-01T22:58:45.597Z,13.24
2022-10-01T23:01:16.298Z,13.19
2022-10-01T23:04:04.325Z,13.10
2022-10-01T23:06:41.458Z,13.13
2022-10-01T23:09:34.644Z,13.24
2022-10-01T23:12:33.231Z,13.20
2022-10-01T23:15:16.730Z,13.29
2022-10-01T23:18:08.839Z,13.32
2022-10-01T23:21:13.572Z,13.29
2022-10-01T23:23:41.439Z,13.33
2022-10-01T23:26:22.779Z,13.39
2022-10-01T23:29:12.408Z,13.44
2022-10-01T23:32:00.585Z,13.47
2022-10-01T23:34:44.761Z,13.51
2022-10-01T23:37:32.940Z,13.54
2022-10-01T23:40:11.114Z,13.57
2022-10-01T23:42:41.466Z,13.56
2022-10-01T23:45:32.429Z,13.60
2022-10-01T23:48:10.310Z,13.61
2022-10-01T23:51:00.134Z,13.63
2022-10-01T23:53:40.414Z,13.64
2022-10-01T23:56:37.937Z,13.66
2022-10-01T23:59:15.088Z,13.67
